createdAt,value
2018-06-17T00:00:01.515Z,16.3
2018-06-17T00:05:01.258Z,16.2
2018-06-17T00:10:01.325Z,16.1
2018-06-17T00:15:01.256Z,16.1
2018-06-17T00:21:01.339Z,16.0
2018-06-17T00:26:02.324Z,15.9
2018-06-17T00:31:01.292Z,15.7
2018-06-17T00:36:01.237Z,15.6
2018-06-17T00:41:01.373Z,15.4
2018-06-17T00:46:01.237Z,15.3
2018-06-17T00:51:01.351Z,15.1
2018-06-17T00:56:01.243Z,15.0
2018-06-17T01:11:01.384Z,14.9
2018-06-17T01:16:01.269Z,15.0
2018-06-17T01:31:01.412Z,15.0
2018-06-17T01:46:01.236Z,15.0
2018-06-17T01:56:01.270Z,15.1
2018-06-17T02:11:01.245Z,15.1
2018-06-17T02:26:01.288Z,15.0
2018-06-17T02:41:01.268Z,15.0
2018-06-17T02:46:01.237Z,14.9
2018-06-17T02:56:01.226Z,14.8
2018-06-17T03:12:01.201Z,14.8
2018-06-17T03:27:01.219Z,14.8
2018-06-17T03:42:01.220Z,14.9
2018-06-17T03:52:01.239Z,15.0
2018-06-17T04:07:01.249Z,14.9
2018-06-17T04:22:01.229Z,14.9
2018-06-17T04:27:01.255Z,15.0
2018-06-17T04:32:01.227Z,15.1
2018-06-17T04:37:01.266Z,15.2
2018-06-17T04:42:01.239Z,15.5
2018-06-17T04:47:01.256Z,15.7
2018-06-17T04:52:01.242Z,15.9
2018-06-17T04:57:01.257Z,16.0
2018-06-17T05:02:01.244Z,16.1
2018-06-17T05:07:01.254Z,16.0
2018-06-17T05:17:01.228Z,15.9
2018-06-17T05:32:01.121Z,16.0
2018-06-17T05:37:01.238Z,16.2
2018-06-17T05:42:01.317Z,16.3
2018-06-17T05:47:01.301Z,16.4
2018-06-17T05:52:01.462Z,16.5
2018-06-17T06:02:01.124Z,16.4
2018-06-17T06:07:01.370Z,16.5
2018-06-17T06:22:01.399Z,16.5
2018-06-17T06:33:01.179Z,16.6
2018-06-17T06:38:01.316Z,16.7
2018-06-17T06:43:01.312Z,16.8
2018-06-17T06:58:01.388Z,16.9
2018-06-17T07:08:01.332Z,17.1
2018-06-17T07:13:01.231Z,17.2
2018-06-17T07:18:01.327Z,17.5
2018-06-17T07:23:01.276Z,17.6
2018-06-17T07:28:01.407Z,17.8
2018-06-17T07:33:01.255Z,17.9
2018-06-17T07:38:01.325Z,18.0
2018-06-17T07:43:01.327Z,18.1
2018-06-17T07:48:01.362Z,18.2
2018-06-17T07:53:01.319Z,18.3
2018-06-17T07:58:01.431Z,18.5
2018-06-17T08:03:01.257Z,18.6
2018-06-17T08:08:01.431Z,18.5
2018-06-17T08:13:01.263Z,18.3
2018-06-17T08:23:01.497Z,18.1
2018-06-17T08:33:01.267Z,18.2
2018-06-17T08:43:01.321Z,18.1
2018-06-17T08:48:01.373Z,18.3
2018-06-17T08:53:01.219Z,18.4
2018-06-17T08:58:01.516Z,18.5
2018-06-17T09:03:01.403Z,18.7
2018-06-17T09:08:01.499Z,18.9
2018-06-17T09:18:01.173Z,18.8
2018-06-17T09:33:01.120Z,18.7
2018-06-17T09:43:01.391Z,18.8
2018-06-17T09:48:01.307Z,18.9
2018-06-17T10:03:01.099Z,18.8
2018-06-17T10:13:01.403Z,18.7
2018-06-17T10:18:01.417Z,18.8
2018-06-17T10:23:01.277Z,19.0
2018-06-17T10:33:01.074Z,19.1
2018-06-17T10:38:01.364Z,18.9
2018-06-17T10:43:01.252Z,18.6
2018-06-17T10:48:01.314Z,18.2
2018-06-17T10:53:01.451Z,17.9
2018-06-17T10:58:01.402Z,17.6
2018-06-17T11:13:01.346Z,17.7
2018-06-17T11:18:01.425Z,17.9
2018-06-17T11:28:01.323Z,18.3
2018-06-17T11:33:01.246Z,18.6
2018-06-17T11:38:01.315Z,19.0
2018-06-17T11:43:01.268Z,19.4
2018-06-17T11:48:01.380Z,19.7
2018-06-17T11:53:01.279Z,19.8
2018-06-17T11:58:01.321Z,19.9
2018-06-17T12:03:01.255Z,20.0
2018-06-17T12:08:01.375Z,20.1
2018-06-17T12:13:01.350Z,20.2
2018-06-17T12:18:01.394Z,20.4
2018-06-17T12:23:01.248Z,20.5
2018-06-17T12:28:01.378Z,20.3
2018-06-17T12:33:01.256Z,20.1
2018-06-17T12:38:01.310Z,19.9
2018-06-17T12:43:01.261Z,19.7
2018-06-17T12:48:01.314Z,19.5
2018-06-17T12:53:01.337Z,19.6
2018-06-17T12:58:01.404Z,19.7
2018-06-17T13:03:01.302Z,19.8
2018-06-17T13:08:01.354Z,20.1
2018-06-17T13:13:01.292Z,20.3
2018-06-17T13:18:01.328Z,20.7
2018-06-17T13:23:01.300Z,20.9
2018-06-17T13:28:01.420Z,21.2
2018-06-17T13:33:01.358Z,21.4
2018-06-17T13:39:01.334Z,21.5
2018-06-17T13:49:01.179Z,21.6
2018-06-17T13:54:01.280Z,21.5
2018-06-17T13:59:01.391Z,21.3
2018-06-17T14:09:01.380Z,21.1
2018-06-17T14:14:01.260Z,21.0
2018-06-17T14:19:01.370Z,20.9
2018-06-17T14:24:01.261Z,21.0
2018-06-17T14:34:01.143Z,21.1
2018-06-17T14:39:01.417Z,21.0
2018-06-17T14:44:01.273Z,20.8
2018-06-17T14:59:01.314Z,20.8
2018-06-17T15:04:01.326Z,21.0
2018-06-17T15:14:01.364Z,20.9
2018-06-17T15:29:01.376Z,20.8
2018-06-17T15:34:01.320Z,20.7
2018-06-17T15:39:01.302Z,20.6
2018-06-17T15:44:01.320Z,20.5
2018-06-17T15:49:01.389Z,20.3
2018-06-17T15:59:01.378Z,20.4
2018-06-17T16:04:01.262Z,20.5
2018-06-17T16:09:01.312Z,20.7
2018-06-17T16:14:01.262Z,20.8
2018-06-17T16:19:01.346Z,20.6
2018-06-17T16:25:01.454Z,20.4
2018-06-17T16:30:01.457Z,20.0
2018-06-17T16:35:01.383Z,19.5
2018-06-17T16:40:01.426Z,19.0
2018-06-17T16:45:01.369Z,18.9
2018-06-17T16:50:01.444Z,18.8
2018-06-17T16:55:01.247Z,18.7
2018-06-17T17:00:01.376Z,18.7
2018-06-17T17:10:01.508Z,18.6
2018-06-17T17:15:01.526Z,18.5
2018-06-17T17:30:01.491Z,18.5
2018-06-17T17:45:01.402Z,18.5
2018-06-17T17:50:01.355Z,18.4
2018-06-17T17:55:01.378Z,18.3
2018-06-17T18:00:01.376Z,18.1
2018-06-17T18:10:01.369Z,17.9
2018-06-17T18:15:01.387Z,17.9
2018-06-17T18:20:01.425Z,17.8
2018-06-17T18:25:01.535Z,17.7
2018-06-17T18:30:01.392Z,17.6
2018-06-17T18:40:01.398Z,17.7
2018-06-17T18:45:01.373Z,17.7
2018-06-17T18:50:01.357Z,17.8
2018-06-17T19:00:01.400Z,17.7
2018-06-17T19:10:01.385Z,17.6
2018-06-17T19:15:01.418Z,17.5
2018-06-17T19:20:01.421Z,17.4
2018-06-17T19:25:01.412Z,17.3
2018-06-17T19:30:01.396Z,17.2
2018-06-17T19:35:01.389Z,17.1
2018-06-17T19:40:01.395Z,16.9
2018-06-17T19:45:01.361Z,16.8
2018-06-17T19:50:01.466Z,16.6
2018-06-17T19:55:01.400Z,16.5
2018-06-17T20:00:01.408Z,16.4
2018-06-17T20:05:01.403Z,16.3
2018-06-17T20:10:01.416Z,16.2
2018-06-17T20:15:01.403Z,16.1
2018-06-17T20:20:01.385Z,15.9
2018-06-17T20:25:01.411Z,15.8
2018-06-17T20:30:01.369Z,15.7
2018-06-17T20:35:01.423Z,15.6
2018-06-17T20:40:01.443Z,15.5
2018-06-17T20:45:01.393Z,15.4
2018-06-17T20:50:01.416Z,15.3
2018-06-17T21:00:01.451Z,15.2
2018-06-17T21:10:01.439Z,15.1
2018-06-17T21:15:01.389Z,15.1
2018-06-17T21:20:01.465Z,15.0
2018-06-17T21:30:01.395Z,14.9
2018-06-17T21:40:01.243Z,14.8
2018-06-17T21:45:01.269Z,14.8
2018-06-17T21:50:01.233Z,14.7
2018-06-17T21:55:01.290Z,14.6
2018-06-17T22:00:01.326Z,14.5
2018-06-17T22:05:01.257Z,14.4
2018-06-17T22:10:01.324Z,14.3
2018-06-17T22:15:01.271Z,14.3
2018-06-17T22:20:01.344Z,14.2
2018-06-17T22:30:01.398Z,14.1
2018-06-17T22:45:01.362Z,14.0
2018-06-17T22:55:01.386Z,13.9
2018-06-17T23:00:01.378Z,13.8
2018-06-17T23:10:01.439Z,13.7
2018-06-17T23:15:01.266Z,13.7
2018-06-17T23:30:01.411Z,13.6
2018-06-17T23:40:01.308Z,13.5
2018-06-17T23:45:01.241Z,13.5
2018-06-17T23:50:01.463Z,13.4
